Flight Briefing for CPX447

Departure Arrival
Salt Lake City International Airport (KSLC)
Click to view FAA NOTAMS
Minneapolis-St Paul International Airport (KMSP)
Click to view FAA NOTAMS
Departure Time Arrival Time
N/A N/A
Aircraft Distance
B757-200SF 860nm
Departure METAR Arrival METAR
KSLC 271054Z 11005KT 10SM -RA BKN041 OVC055 10/08 A2980 RMK AO2 SLP055 P0006 T01000083 VISNO NW RNWY KMSP 271053Z 02004KT 10SM -RA OVC090 14/11 A2992 RMK AO2 RAB35 SLP130 P0000 T01440106
Suggested Route
RUGGD1 OCS CKW MBW BFF ANW SSWAN TORGY3


View recent IFR Routes data
Notes



Charts and Procedures

Charts for KSLC
No chart available
Charts for KMSP
No chart available

Windy.com Weather Map